Other Surface Observations
Issued by NWS Great Falls, MT

Home | Current Version | Previous Version | Text Only | Print | Product List | Glossary On
Versions: 1 2 3 4 5 6 7 8 9 10 11 12 13 14 15 16 17 18 19 20 21 22 23 24 25 26 27 28 29 30 31 32 33 34 35 36 37 38 39 40 41 42 43 44 45 46 47 48 49 50
000
SXUS55 KTFX 230959
OSOTFX
AREA AWOS OBSERVATIONS
NATIONAL WEATHER SERVICE GREAT FALLS MT
0359 AM MDT SAT JUL 23 2016

METAR KPWD 231000Z AUTO 21008KT 8SM 21/18 A2983 RMK PLENTYWOOD
METAR KPO1 231000Z AUTO 18011KT 10SM 21/17 A2983 RMK POPLAR
METAR K1S3 231000Z AUTO 00000KT 10SM 21/11 A2991 RMK FORSYTH
METAR KS71 231000Z AUTO 15005KT 10SM 14/09 A2989 RMK CHINOOK
METAR K38S 231000Z AUTO 00000KT 10SM 13/03 A3020 RMK DEER LODGE
METAR K3U3 231000Z AUTO 20006KT 10SM 14/03 A3019 RMK ANACONDA
METAR K6S5 231000Z AUTO 00000KT 10SM 13/05 A3017 RMK HAMILTON
METAR KS59 231000Z AUTO 00000KT 10SM 08/08 A3014 RMK LIBBY
METAR K88M 231000Z AUTO 14005KT 10SM 13/08 A3011 RMK EUREKA



USA.gov is the U.S. government's official web portal to all federal, state and local government web resources and services.